createdAt,value
2019-05-11T00:00:24.194Z,21.50
2019-05-11T00:02:52.750Z,20.70
2019-05-11T00:05:21.410Z,20.57
2019-05-11T00:07:49.959Z,20.93
2019-05-11T00:10:18.574Z,20.83
2019-05-11T00:12:51.559Z,21.70
2019-05-11T00:15:20.063Z,20.93
2019-05-11T00:17:48.548Z,21.43
2019-05-11T00:20:17.125Z,21.60
2019-05-11T00:22:45.650Z,22.80
2019-05-11T00:25:14.704Z,22.17
2019-05-11T00:27:43.163Z,21.80
2019-05-11T00:30:12.139Z,22.87
2019-05-11T00:32:40.900Z,22.50
2019-05-11T00:35:09.366Z,22.70
2019-05-11T00:37:37.935Z,22.53
2019-05-11T00:40:14.478Z,22.23
2019-05-11T00:42:37.097Z,21.27
2019-05-11T00:45:06.825Z,22.77
2019-05-11T00:47:35.392Z,20.10
2019-05-11T00:50:05.005Z,21.10
2019-05-11T00:52:35.060Z,21.13
2019-05-11T00:55:04.324Z,19.73
2019-05-11T00:57:32.872Z,19.03
2019-05-11T01:00:01.352Z,20.90
2019-05-11T01:02:30.281Z,19.63
2019-05-11T01:04:59.111Z,18.77
2019-05-11T01:07:27.721Z,19.20
2019-05-11T01:09:56.204Z,18.87
2019-05-11T01:12:24.667Z,18.60
2019-05-11T01:14:53.148Z,19.73
2019-05-11T01:17:21.656Z,18.43
2019-05-11T01:19:50.386Z,18.10
2019-05-11T01:22:18.883Z,18.47
2019-05-11T01:24:47.410Z,18.83
2019-05-11T01:27:15.982Z,17.33
2019-05-11T01:29:44.455Z,17.73
2019-05-11T01:32:12.944Z,17.80
2019-05-11T01:34:41.422Z,16.40
2019-05-11T01:37:10.008Z,16.53
2019-05-11T01:39:40.130Z,17.60
2019-05-11T01:42:08.639Z,17.43
2019-05-11T01:44:37.137Z,17.47
2019-05-11T01:47:05.682Z,17.03
2019-05-11T01:49:34.311Z,18.00
2019-05-11T01:52:02.787Z,17.50
2019-05-11T01:54:31.256Z,18.00
2019-05-11T01:56:59.724Z,16.53
2019-05-11T01:59:28.217Z,17.00
2019-05-11T02:01:56.916Z,17.63
2019-05-11T02:04:25.570Z,16.83
2019-05-11T02:06:54.440Z,16.67
2019-05-11T02:09:23.230Z,16.03
2019-05-11T02:11:52.021Z,16.47
2019-05-11T02:14:20.516Z,16.63
2019-05-11T02:16:50.009Z,15.50
2019-05-11T02:19:18.799Z,15.13
2019-05-11T02:21:47.630Z,15.67
2019-05-11T02:24:16.450Z,14.83
2019-05-11T02:26:45.226Z,13.47
2019-05-11T02:29:14.127Z,14.03
2019-05-11T02:31:42.956Z,12.73
2019-05-11T02:34:11.709Z,13.03
2019-05-11T02:36:41.266Z,12.43
2019-05-11T02:39:10.134Z,13.00
2019-05-11T02:41:40.578Z,12.50
2019-05-11T02:44:09.336Z,12.63
2019-05-11T02:46:38.170Z,12.23
2019-05-11T02:49:06.765Z,12.47
2019-05-11T02:51:35.553Z,11.60
2019-05-11T02:54:04.397Z,12.10
2019-05-11T02:56:32.859Z,11.73
2019-05-11T02:59:01.472Z,11.27
2019-05-11T03:01:30.075Z,12.73
2019-05-11T03:03:58.668Z,12.27
2019-05-11T03:06:27.130Z,12.77
2019-05-11T03:08:55.628Z,12.07
2019-05-11T03:11:24.190Z,13.00
2019-05-11T03:13:52.669Z,12.70
2019-05-11T03:16:21.179Z,13.30
2019-05-11T03:18:49.672Z,12.33
2019-05-11T03:21:18.221Z,13.33
2019-05-11T03:23:46.793Z,13.33
2019-05-11T03:26:15.277Z,12.23
2019-05-11T03:28:43.873Z,12.90
2019-05-11T03:31:12.375Z,13.53
2019-05-11T03:33:40.976Z,12.67
2019-05-11T03:36:09.552Z,12.97
2019-05-11T03:38:38.063Z,12.57
2019-05-11T03:41:06.531Z,12.80
2019-05-11T03:43:35.089Z,12.83
2019-05-11T03:46:03.594Z,13.20
2019-05-11T03:48:32.164Z,13.77
2019-05-11T03:51:00.859Z,13.80
2019-05-11T03:53:29.418Z,13.27
2019-05-11T03:55:57.991Z,12.50
2019-05-11T03:58:26.987Z,12.67
2019-05-11T04:00:55.575Z,12.57
2019-05-11T04:03:24.199Z,12.67
2019-05-11T04:05:52.743Z,12.37
2019-05-11T04:08:21.234Z,12.43
2019-05-11T04:10:49.825Z,11.67
2019-05-11T04:13:18.347Z,11.40
2019-05-11T04:15:46.882Z,11.93
2019-05-11T04:18:15.462Z,11.57
2019-05-11T04:20:44.020Z,11.97
2019-05-11T04:23:12.495Z,11.00
2019-05-11T04:25:41.128Z,11.33
2019-05-11T04:28:09.673Z,10.67
2019-05-11T04:30:38.184Z,10.77
2019-05-11T04:33:08.233Z,10.00
2019-05-11T04:35:36.739Z,11.60
2019-05-11T04:38:06.934Z,10.60
2019-05-11T04:40:35.509Z,10.53
2019-05-11T04:43:05.375Z,10.33
2019-05-11T04:45:33.965Z,10.10
2019-05-11T04:48:02.515Z,9.40
2019-05-11T04:50:31.272Z,9.90
2019-05-11T04:52:59.846Z,9.30
2019-05-11T04:55:28.400Z,10.10
2019-05-11T04:57:56.943Z,9.47
2019-05-11T05:00:25.587Z,10.40
2019-05-11T05:02:54.102Z,10.30
2019-05-11T05:05:22.590Z,9.67
2019-05-11T05:07:51.124Z,10.53
2019-05-11T05:10:22.056Z,9.40
2019-05-11T05:12:51.457Z,9.20
2019-05-11T05:15:20.062Z,9.30
2019-05-11T05:17:48.550Z,9.03
2019-05-11T05:20:17.140Z,10.03
2019-05-11T05:22:45.646Z,8.70
2019-05-11T05:25:14.314Z,8.60
2019-05-11T05:27:42.804Z,9.67
2019-05-11T05:30:12.860Z,9.03
2019-05-11T05:32:41.356Z,9.20
2019-05-11T05:35:10.167Z,9.20
2019-05-11T05:37:38.716Z,8.70
2019-05-11T05:40:07.706Z,9.20
2019-05-11T05:42:36.171Z,9.80
2019-05-11T05:45:06.473Z,8.20
2019-05-11T05:47:35.025Z,8.90
2019-05-11T05:50:05.858Z,8.43
2019-05-11T05:52:34.420Z,8.83
2019-05-11T05:55:03.061Z,10.00
2019-05-11T05:57:31.650Z,9.70
2019-05-11T06:00:01.758Z,9.30
2019-05-11T06:02:30.296Z,9.13
2019-05-11T06:04:58.847Z,9.33
2019-05-11T06:07:27.400Z,9.70
2019-05-11T06:09:55.986Z,8.93
2019-05-11T06:12:24.484Z,9.93
2019-05-11T06:14:52.996Z,10.03
2019-05-11T06:17:21.526Z,10.03
2019-05-11T06:19:50.082Z,10.53
2019-05-11T06:22:18.574Z,9.80
2019-05-11T06:24:47.065Z,10.07
2019-05-11T06:27:15.632Z,9.97
2019-05-11T06:29:44.103Z,10.13
2019-05-11T06:32:12.572Z,10.73
2019-05-11T06:34:41.719Z,10.97
2019-05-11T06:37:10.287Z,10.03
2019-05-11T06:39:43.087Z,11.13
2019-05-11T06:42:11.596Z,11.03
2019-05-11T06:44:40.296Z,11.10
2019-05-11T06:47:08.759Z,10.60
2019-05-11T06:49:37.226Z,11.60
2019-05-11T06:52:05.750Z,10.40
2019-05-11T06:54:34.292Z,11.17
2019-05-11T06:57:04.305Z,10.23
2019-05-11T06:59:32.847Z,11.73
2019-05-11T07:02:01.333Z,11.13
2019-05-11T07:04:34.760Z,11.07
2019-05-11T07:07:03.656Z,10.47
2019-05-11T07:09:32.206Z,10.77
2019-05-11T07:12:00.885Z,10.27
2019-05-11T07:14:29.439Z,10.40
2019-05-11T07:16:57.908Z,10.50
2019-05-11T07:19:26.410Z,9.63
2019-05-11T07:21:54.918Z,10.67
2019-05-11T07:24:23.474Z,9.87
2019-05-11T07:26:52.016Z,11.07
2019-05-11T07:29:20.591Z,10.53
2019-05-11T07:31:51.055Z,10.73
2019-05-11T07:34:19.374Z,10.23
2019-05-11T07:36:47.979Z,10.23
2019-05-11T07:39:18.543Z,9.90
2019-05-11T07:41:47.845Z,9.40
2019-05-11T07:44:18.963Z,10.00
2019-05-11T07:46:48.298Z,9.17
2019-05-11T07:49:18.043Z,9.03
2019-05-11T07:51:48.127Z,9.37
2019-05-11T07:54:18.761Z,9.10
2019-05-11T07:56:48.024Z,9.33
2019-05-11T07:59:18.397Z,8.40
2019-05-11T08:01:47.939Z,9.27
2019-05-11T08:04:18.348Z,8.70
2019-05-11T08:06:49.089Z,8.33
2019-05-11T08:09:18.632Z,8.10
2019-05-11T08:11:47.993Z,8.10
2019-05-11T08:14:18.242Z,7.83
2019-05-11T08:16:48.080Z,8.00
2019-05-11T08:19:18.566Z,7.53
2019-05-11T08:21:48.059Z,7.50
2019-05-11T08:24:18.056Z,7.87
2019-05-11T08:26:48.037Z,7.67
2019-05-11T08:29:18.591Z,8.10
2019-05-11T08:31:48.754Z,8.90
2019-05-11T08:34:18.016Z,7.20
2019-05-11T08:36:47.959Z,7.87
2019-05-11T08:39:18.265Z,6.60
2019-05-11T08:41:48.845Z,6.73
2019-05-11T08:44:18.202Z,7.80
2019-05-11T08:46:47.822Z,7.67
2019-05-11T08:49:18.910Z,7.33
2019-05-11T08:51:47.801Z,7.23
2019-05-11T08:54:18.430Z,6.83
2019-05-11T08:56:48.659Z,6.93
2019-05-11T08:59:18.608Z,7.80
2019-05-11T09:01:48.448Z,7.20
2019-05-11T09:04:18.239Z,7.03
2019-05-11T09:06:47.933Z,6.77
2019-05-11T09:09:18.121Z,6.67
2019-05-11T09:11:48.111Z,6.70
2019-05-11T09:14:18.779Z,6.70
2019-05-11T09:16:48.999Z,6.93
2019-05-11T09:19:17.886Z,6.90
2019-05-11T09:21:48.172Z,6.27
2019-05-11T09:24:18.764Z,6.70
2019-05-11T09:26:47.929Z,6.77
2019-05-11T09:29:17.952Z,6.00
2019-05-11T09:31:48.637Z,6.53
2019-05-11T09:34:18.102Z,6.43
2019-05-11T09:36:47.957Z,6.10
2019-05-11T09:39:17.756Z,5.90
2019-05-11T09:41:48.665Z,6.07
2019-05-11T09:44:18.267Z,5.90
2019-05-11T09:46:47.795Z,5.97
2019-05-11T09:49:18.492Z,5.60
2019-05-11T09:51:48.366Z,6.00
2019-05-11T09:54:18.302Z,6.37
2019-05-11T09:56:48.693Z,5.87
2019-05-11T09:59:17.846Z,6.30
2019-05-11T10:01:48.295Z,6.60
2019-05-11T10:04:18.074Z,6.47
2019-05-11T10:06:48.078Z,5.90
2019-05-11T10:09:18.620Z,6.43
2019-05-11T10:11:48.036Z,6.40
2019-05-11T10:14:18.709Z,5.67
2019-05-11T10:16:49.129Z,6.00
2019-05-11T10:19:18.061Z,6.77
2019-05-11T10:21:48.685Z,5.37
2019-05-11T10:24:17.785Z,6.00
2019-05-11T10:26:48.515Z,5.67
2019-05-11T10:29:18.276Z,6.37
2019-05-11T10:31:48.084Z,5.67
2019-05-11T10:34:17.961Z,5.63
2019-05-11T10:36:48.620Z,6.30
2019-05-11T10:39:18.661Z,6.17
2019-05-11T10:41:47.991Z,5.10
2019-05-11T10:44:18.830Z,5.10
2019-05-11T10:46:48.336Z,5.53
2019-05-11T10:49:18.462Z,5.90
2019-05-11T10:51:48.640Z,5.10
2019-05-11T10:54:18.769Z,5.90
2019-05-11T10:56:48.130Z,5.70
2019-05-11T10:59:18.821Z,5.50
2019-05-11T11:01:48.370Z,5.03
2019-05-11T11:04:18.436Z,5.57
2019-05-11T11:06:48.550Z,5.07
2019-05-11T11:09:17.885Z,5.10
2019-05-11T11:11:48.646Z,5.40
2019-05-11T11:14:18.048Z,4.90
2019-05-11T11:16:48.364Z,5.13
2019-05-11T11:19:18.329Z,5.50
2019-05-11T11:21:48.713Z,4.30
2019-05-11T11:24:18.013Z,4.83
2019-05-11T11:26:48.618Z,3.57
2019-05-11T11:29:17.883Z,4.00
2019-05-11T11:31:48.188Z,3.37
2019-05-11T11:34:18.849Z,4.30
2019-05-11T11:36:48.176Z,2.80
2019-05-11T11:39:18.683Z,3.37
2019-05-11T11:41:48.576Z,4.27
2019-05-11T11:44:18.512Z,4.70
2019-05-11T11:46:54.516Z,4.67
2019-05-11T11:49:18.727Z,3.90
2019-05-11T11:51:48.404Z,3.50
2019-05-11T11:54:18.348Z,4.60
2019-05-11T11:56:48.513Z,4.40
2019-05-11T11:59:17.833Z,4.20
2019-05-11T12:01:48.754Z,3.50
2019-05-11T12:04:18.835Z,4.77
2019-05-11T12:06:48.974Z,3.30
2019-05-11T12:09:18.156Z,3.60
2019-05-11T12:11:48.563Z,3.03
2019-05-11T12:14:18.697Z,4.50
2019-05-11T12:16:48.023Z,3.63
2019-05-11T12:19:18.714Z,4.03
2019-05-11T12:21:48.436Z,4.03
2019-05-11T12:24:18.770Z,4.60
2019-05-11T12:26:48.075Z,4.60
2019-05-11T12:29:18.795Z,5.47
2019-05-11T12:31:48.467Z,5.27
2019-05-11T12:34:17.946Z,5.07
2019-05-11T12:36:47.959Z,4.93
2019-05-11T12:39:19.000Z,4.80
2019-05-11T12:41:47.948Z,3.93
2019-05-11T12:44:18.580Z,4.97
2019-05-11T12:46:48.886Z,4.40
2019-05-11T12:49:18.612Z,5.30
2019-05-11T12:51:48.785Z,4.47
2019-05-11T12:54:18.680Z,4.87
2019-05-11T12:56:48.955Z,4.43
2019-05-11T12:59:18.753Z,4.70
2019-05-11T13:01:48.605Z,4.43
2019-05-11T13:04:18.213Z,5.43
2019-05-11T13:06:47.906Z,4.43
2019-05-11T13:09:18.326Z,3.57
2019-05-11T13:11:48.216Z,3.80
2019-05-11T13:14:18.436Z,4.07
2019-05-11T13:16:48.292Z,4.70
2019-05-11T13:19:17.680Z,4.90
2019-05-11T13:21:48.486Z,4.70
2019-05-11T13:24:18.552Z,4.70
2019-05-11T13:26:48.500Z,4.47
2019-05-11T13:29:18.138Z,4.00
2019-05-11T13:31:48.641Z,4.23
2019-05-11T13:34:17.931Z,4.90
2019-05-11T13:36:48.889Z,4.30
2019-05-11T13:39:18.203Z,4.37
2019-05-11T13:41:47.566Z,4.30
2019-05-11T13:44:18.423Z,3.90
2019-05-11T13:46:48.190Z,3.43
2019-05-11T13:49:17.869Z,4.00
2019-05-11T13:51:48.042Z,3.77
2019-05-11T13:54:18.474Z,3.63
2019-05-11T13:56:48.314Z,3.90
2019-05-11T13:59:18.797Z,4.00
2019-05-11T14:01:47.794Z,4.27
2019-05-11T14:04:18.106Z,3.73
2019-05-11T14:06:48.139Z,3.30
2019-05-11T14:09:18.408Z,3.00
2019-05-11T14:11:48.503Z,3.50
2019-05-11T14:14:18.403Z,2.90
2019-05-11T14:16:48.563Z,2.93
2019-05-11T14:19:17.966Z,3.30
2019-05-11T14:21:48.777Z,2.77
2019-05-11T14:24:18.397Z,3.03
2019-05-11T14:26:48.840Z,2.50
2019-05-11T14:29:17.955Z,2.50
2019-05-11T14:31:48.663Z,2.70
2019-05-11T14:34:18.159Z,2.47
2019-05-11T14:36:48.003Z,3.17
2019-05-11T14:39:18.799Z,2.60
2019-05-11T14:41:48.732Z,2.83
2019-05-11T14:44:18.089Z,2.90
2019-05-11T14:46:47.798Z,2.87
2019-05-11T14:49:18.347Z,2.73
2019-05-11T14:51:48.570Z,3.20
2019-05-11T14:54:18.835Z,2.70
2019-05-11T14:56:48.176Z,2.40
2019-05-11T14:59:18.351Z,2.53
2019-05-11T15:01:49.060Z,2.80
2019-05-11T15:04:18.149Z,2.37
2019-05-11T15:06:48.910Z,2.50
2019-05-11T15:09:18.376Z,2.60
2019-05-11T15:11:48.054Z,2.20
2019-05-11T15:14:19.711Z,2.27
2019-05-11T15:16:48.675Z,2.30
2019-05-11T15:19:18.517Z,2.40
2019-05-11T15:21:47.614Z,2.70
2019-05-11T15:24:18.297Z,2.43
2019-05-11T15:26:48.451Z,2.70
2019-05-11T15:29:18.473Z,3.10
2019-05-11T15:31:48.621Z,2.27
2019-05-11T15:34:18.562Z,2.70
2019-05-11T15:36:48.984Z,2.17
2019-05-11T15:39:18.365Z,2.03
2019-05-11T15:41:48.650Z,2.13
2019-05-11T15:44:18.354Z,2.50
2019-05-11T15:46:47.952Z,2.10
2019-05-11T15:49:17.947Z,1.90
2019-05-11T15:51:48.878Z,2.13
2019-05-11T15:54:18.471Z,2.00
2019-05-11T15:56:47.266Z,2.10
2019-05-11T15:59:15.710Z,2.17
2019-05-11T16:01:44.183Z,1.90
2019-05-11T16:04:12.781Z,2.50
2019-05-11T16:06:41.376Z,2.20
2019-05-11T16:09:10.182Z,2.30
2019-05-11T16:11:39.023Z,1.97
2019-05-11T16:14:08.612Z,2.27
2019-05-11T16:16:39.115Z,2.27
2019-05-11T16:19:14.788Z,2.00
2019-05-11T16:21:39.795Z,2.10
2019-05-11T16:24:08.373Z,1.70
2019-05-11T16:26:36.891Z,2.40
2019-05-11T16:29:05.511Z,1.70
2019-05-11T16:31:33.965Z,1.70
2019-05-11T16:34:02.857Z,1.90
2019-05-11T16:36:33.297Z,1.70
2019-05-11T16:39:01.800Z,1.60
2019-05-11T16:41:30.270Z,1.97
2019-05-11T16:44:00.819Z,1.70
2019-05-11T16:46:29.322Z,1.90
2019-05-11T16:48:58.040Z,1.70
2019-05-11T16:51:28.453Z,2.10
2019-05-11T16:53:58.787Z,1.90
2019-05-11T16:56:27.495Z,1.77
2019-05-11T16:58:56.023Z,2.03
2019-05-11T17:01:24.497Z,1.70
2019-05-11T17:03:53.088Z,2.13
2019-05-11T17:06:21.680Z,2.10
2019-05-11T17:08:50.160Z,1.90
2019-05-11T17:11:18.837Z,2.73
2019-05-11T17:13:48.346Z,2.20
2019-05-11T17:16:18.003Z,2.70
2019-05-11T17:18:48.247Z,2.40
2019-05-11T17:21:18.329Z,2.40
2019-05-11T17:23:48.838Z,2.03
2019-05-11T17:26:19.039Z,2.10
2019-05-11T17:28:48.955Z,2.13
2019-05-11T17:31:18.792Z,1.73
2019-05-11T17:33:47.784Z,2.27
2019-05-11T17:36:18.483Z,2.00
2019-05-11T17:38:47.906Z,2.13
2019-05-11T17:41:18.183Z,1.97
2019-05-11T17:43:47.956Z,1.80
2019-05-11T17:46:18.400Z,1.87
2019-05-11T17:48:46.844Z,1.90
2019-05-11T17:51:22.631Z,2.50
2019-05-11T17:53:48.087Z,1.93
2019-05-11T17:56:16.037Z,2.23
2019-05-11T17:58:48.361Z,2.43
2019-05-11T18:01:18.584Z,1.73
2019-05-11T18:03:46.695Z,1.60
2019-05-11T18:06:15.197Z,2.10
2019-05-11T18:08:43.776Z,1.33
2019-05-11T18:11:12.961Z,1.77
2019-05-11T18:13:42.677Z,2.30
2019-05-11T18:16:11.282Z,1.80
2019-05-11T18:18:39.860Z,1.90
2019-05-11T18:21:08.669Z,2.07
2019-05-11T18:23:38.744Z,2.00
2019-05-11T18:26:08.813Z,2.67
2019-05-11T18:28:37.937Z,1.73
2019-05-11T18:31:06.610Z,2.23
2019-05-11T18:33:35.161Z,1.87
2019-05-11T18:36:03.721Z,1.90
2019-05-11T18:38:33.648Z,1.73
2019-05-11T18:41:02.149Z,1.90
2019-05-11T18:43:30.744Z,1.67
2019-05-11T18:45:59.228Z,1.80
2019-05-11T18:48:29.187Z,1.47
2019-05-11T18:50:58.987Z,1.57
2019-05-11T18:53:28.904Z,1.50
2019-05-11T18:55:59.099Z,1.70
2019-05-11T18:58:28.048Z,1.40
2019-05-11T19:00:56.613Z,1.67
2019-05-11T19:03:25.167Z,1.93
2019-05-11T19:05:53.651Z,1.87
2019-05-11T19:08:22.221Z,2.33
2019-05-11T19:10:50.754Z,1.53
2019-05-11T19:13:19.900Z,1.60
2019-05-11T19:15:48.851Z,1.70
2019-05-11T19:18:17.940Z,1.80
2019-05-11T19:20:49.450Z,1.70
2019-05-11T19:23:19.222Z,2.10
2019-05-11T19:25:52.243Z,1.37
2019-05-11T19:28:20.780Z,1.90
2019-05-11T19:30:50.462Z,2.70
2019-05-11T19:33:19.276Z,2.40
2019-05-11T19:35:48.694Z,1.80
2019-05-11T19:38:18.940Z,1.63
2019-05-11T19:40:49.446Z,1.70
2019-05-11T19:43:18.632Z,1.60
2019-05-11T19:45:48.653Z,1.77
2019-05-11T19:48:17.547Z,1.60
2019-05-11T19:51:02.657Z,1.33
2019-05-11T19:53:18.737Z,1.90
2019-05-11T19:55:47.952Z,1.47
2019-05-11T19:58:19.174Z,1.70
2019-05-11T20:00:48.780Z,1.63
2019-05-11T20:03:18.228Z,2.13
2019-05-11T20:05:48.556Z,1.40
2019-05-11T20:08:18.473Z,1.60
2019-05-11T20:10:48.690Z,1.63
2019-05-11T20:13:17.999Z,1.80
2019-05-11T20:15:48.513Z,1.70
2019-05-11T20:18:18.422Z,1.90
2019-05-11T20:20:48.066Z,1.70
2019-05-11T20:23:16.801Z,1.53
2019-05-11T20:25:47.647Z,1.50
2019-05-11T20:28:18.005Z,1.97
2019-05-11T20:30:48.091Z,1.83
2019-05-11T20:33:16.037Z,1.80
2019-05-11T20:35:46.149Z,1.77
2019-05-11T20:38:14.717Z,2.00
2019-05-11T20:40:43.252Z,1.93
2019-05-11T20:43:11.772Z,2.10
2019-05-11T20:45:40.466Z,1.83
2019-05-11T20:48:09.040Z,2.20
2019-05-11T20:50:37.956Z,2.20
2019-05-11T20:53:08.590Z,2.00
2019-05-11T20:55:37.667Z,1.63
2019-05-11T20:58:08.467Z,1.70
2019-05-11T21:00:38.338Z,2.27
2019-05-11T21:03:08.011Z,1.83
2019-05-11T21:05:36.734Z,1.90
2019-05-11T21:08:05.299Z,1.53
2019-05-11T21:10:33.902Z,1.70
2019-05-11T21:13:02.484Z,1.77
2019-05-11T21:15:31.020Z,1.53
2019-05-11T21:17:59.588Z,1.70
2019-05-11T21:20:28.726Z,2.33
2019-05-11T21:22:58.080Z,1.80
2019-05-11T21:25:28.724Z,1.47
2019-05-11T21:27:57.911Z,1.90
2019-05-11T21:30:26.698Z,1.60
2019-05-11T21:32:55.190Z,1.90
2019-05-11T21:35:23.784Z,2.00
2019-05-11T21:37:52.353Z,1.67
2019-05-11T21:40:20.918Z,2.00
2019-05-11T21:42:49.465Z,2.10
2019-05-11T21:45:18.568Z,2.80
2019-05-11T21:47:49.041Z,3.80
2019-05-11T21:50:19.459Z,3.70
2019-05-11T21:52:48.409Z,3.63
2019-05-11T21:55:17.112Z,3.80
2019-05-11T21:57:49.488Z,2.93
2019-05-11T22:00:18.656Z,2.73
2019-05-11T22:02:48.482Z,3.20
2019-05-11T22:05:18.309Z,2.13
2019-05-11T22:07:49.011Z,2.30
2019-05-11T22:10:18.493Z,2.40
2019-05-11T22:12:48.928Z,2.33
2019-05-11T22:15:17.435Z,2.77
2019-05-11T22:17:47.710Z,2.60
2019-05-11T22:20:18.424Z,2.50
2019-05-11T22:22:47.621Z,2.57
2019-05-11T22:25:18.361Z,2.53
2019-05-11T22:27:48.859Z,1.90
2019-05-11T22:30:18.507Z,2.43
2019-05-11T22:32:47.791Z,2.27
2019-05-11T22:35:18.350Z,2.33
2019-05-11T22:37:48.726Z,2.33
2019-05-11T22:40:16.869Z,2.50
2019-05-11T22:42:45.418Z,2.40
2019-05-11T22:45:14.236Z,2.30
2019-05-11T22:47:42.794Z,2.30
2019-05-11T22:50:11.558Z,2.53
2019-05-11T22:52:40.804Z,2.47
2019-05-11T22:55:12.029Z,3.23
2019-05-11T22:57:40.830Z,3.43
2019-05-11T23:00:10.604Z,2.67
2019-05-11T23:02:40.229Z,3.13
2019-05-11T23:05:09.121Z,2.80
2019-05-11T23:07:41.526Z,2.57
2019-05-11T23:10:10.675Z,3.00
2019-05-11T23:12:39.237Z,2.67
2019-05-11T23:15:13.402Z,2.67
2019-05-11T23:17:42.284Z,3.47
2019-05-11T23:20:11.314Z,2.97
2019-05-11T23:22:56.076Z,2.40
2019-05-11T23:25:14.624Z,2.60
2019-05-11T23:27:43.088Z,2.30
2019-05-11T23:30:11.846Z,2.67
2019-05-11T23:32:40.318Z,2.80
2019-05-11T23:35:08.972Z,2.87
2019-05-11T23:37:38.590Z,2.70
2019-05-11T23:40:10.101Z,2.90
2019-05-11T23:42:38.581Z,2.70
2019-05-11T23:45:08.415Z,2.83
2019-05-11T23:47:39.338Z,3.20
2019-05-11T23:50:08.365Z,3.53
2019-05-11T23:52:38.026Z,3.27
2019-05-11T23:55:08.354Z,4.33
2019-05-11T23:57:37.967Z,2.90
